Secor, Illinois
Current Conditions -  °F | °C
As of 7:56 AM on Thursday 23 Oct 2014 (Local Time) from KBMI Reporting Station
Clear Clear  
Wind Chill: 33°   Ceiling: Unl
Heat Index: 38°   Visibility: 9mi
Dew Point: 37°   Wind: 7mph
Humidity: 96%   Direction: 170°S
Pressure: 30.22"   Gusts: NA
Location:  40.74°N, 89.14°W
Report Text: KBMI 231256Z 17006KT 9SM CLR 03/03 A3022 RMK AO2 T00330027 RAB14E52 P0000 SLP243
Loading
Personal Weather Stations






























Interactive Weather Map
Tropical Storm Tracking
New forecast layout! Learn more

10-Day Weather Forecast

Advertisements
Track Severe Weather on mobile